createdAt,value
2018-07-05T00:10:01.018Z,1.4
2018-07-05T00:30:01.332Z,3.0
2018-07-05T00:50:01.463Z,3.0
2018-07-05T01:10:00.751Z,2.0
2018-07-05T01:30:05.904Z,4.0
2018-07-05T01:50:01.108Z,1.0
2018-07-05T02:10:01.304Z,1.8
2018-07-05T02:30:00.572Z,2.0
2018-07-05T02:50:00.714Z,1.2
2018-07-05T03:10:00.826Z,1.8
2018-07-05T03:30:01.219Z,1.0
2018-07-05T03:50:01.344Z,1.8
2018-07-05T04:10:00.587Z,2.0
2018-07-05T04:30:00.723Z,2.0
2018-07-05T04:50:00.979Z,2.0
2018-07-05T05:10:01.114Z,2.0
2018-07-05T05:30:01.768Z,2.0
2018-07-05T05:50:00.492Z,1.0
2018-07-05T06:10:00.762Z,0.0
2018-07-05T06:30:01.001Z,0.0
2018-07-05T06:50:01.252Z,0.0
2018-07-05T07:10:01.368Z,0.0
2018-07-05T07:30:00.642Z,0.0
2018-07-05T07:50:00.792Z,0.0
2018-07-05T08:10:01.110Z,0.0
2018-07-05T08:30:01.276Z,0.0
2018-07-05T08:50:01.378Z,0.0
2018-07-05T09:10:00.608Z,0.0
2018-07-05T09:30:00.796Z,0.0
2018-07-05T09:50:01.054Z,1.0
2018-07-05T10:10:01.175Z,2.0
2018-07-05T10:30:01.441Z,3.0
2018-07-05T10:50:00.656Z,1.0
2018-07-05T11:10:00.965Z,1.0
2018-07-05T11:30:01.080Z,1.0
2018-07-05T11:50:01.306Z,1.0
2018-07-05T12:10:01.471Z,0.4
2018-07-05T12:30:00.579Z,1.0
2018-07-05T12:50:00.838Z,1.0
2018-07-05T13:10:00.940Z,0.8
2018-07-05T13:30:01.190Z,0.0
2018-07-05T13:50:01.401Z,0.0
2018-07-05T14:10:00.575Z,1.0
2018-07-05T14:30:00.858Z,2.0
2018-07-05T14:50:01.089Z,0.0
2018-07-05T15:10:01.205Z,1.0
2018-07-05T15:30:01.495Z,0.8
2018-07-05T15:50:00.620Z,1.0
2018-07-05T16:10:01.420Z,1.0
2018-07-05T16:30:01.029Z,1.0
2018-07-05T16:50:01.276Z,1.0
2018-07-05T17:10:01.135Z,1.0
2018-07-05T17:30:00.649Z,0.8
2018-07-05T17:50:00.782Z,1.0
2018-07-05T18:10:01.030Z,1.0
2018-07-05T18:30:01.280Z,0.0
2018-07-05T18:50:01.396Z,0.0
2018-07-05T19:10:00.670Z,0.0
2018-07-05T19:30:00.821Z,1.0
2018-07-05T19:50:01.084Z,1.0
2018-07-05T20:10:01.324Z,0.0
2018-07-05T20:30:01.890Z,1.0
2018-07-05T20:50:00.652Z,3.4
2018-07-05T21:10:00.822Z,3.6
2018-07-05T21:30:01.073Z,4.0
2018-07-05T21:50:01.215Z,5.0
2018-07-05T22:10:01.462Z,5.0
2018-07-05T22:30:00.707Z,3.6
2018-07-05T22:50:00.866Z,2.0
2018-07-05T23:10:01.076Z,4.8
2018-07-05T23:30:01.199Z,3.0
2018-07-05T23:50:01.534Z,3.0
